Time,TemperatureF,DewpointF,PressureIn,WindDirection,WindDirectionDegrees,WindSpeedMPH,WindSpeedGustMPH,Humidity,HourlyPrecipIn,Conditions,Clouds,dailyrainin,SoftwareType,DateUTC
2013-02-24 00:00:00,23.4,10.8,29.16,WSW,248,4.0,11.0,58,0.00,,,0.00,meteohub,2013-02-24 06:00:00,
2013-02-24 00:05:00,23.0,10.8,29.16,ENE,68,0.0,11.0,59,0.00,,,0.00,meteohub,2013-02-24 06:05:00,
2013-02-24 00:10:00,22.8,11.1,29.16,ENE,68,3.0,11.0,60,0.00,,,0.00,meteohub,2013-02-24 06:10:00,
2013-02-24 00:15:00,22.6,11.3,29.16,NNE,22,3.0,6.0,61,0.00,,,0.00,meteohub,2013-02-24 06:15:00,
2013-02-24 00:20:00,22.5,11.1,29.16,NNE,22,1.0,6.0,61,0.00,,,0.00,meteohub,2013-02-24 06:20:00,
2013-02-24 00:25:00,22.3,10.9,29.16,East,90,4.0,6.0,61,0.00,,,0.00,meteohub,2013-02-24 06:25:00,
2013-02-24 00:30:00,22.1,11.1,29.16,ENE,68,4.0,6.0,62,0.00,,,0.00,meteohub,2013-02-24 06:30:00,
2013-02-24 00:35:00,21.9,11.3,29.16,NNE,22,4.0,6.0,63,0.00,,,0.00,meteohub,2013-02-24 06:35:00,
2013-02-24 00:40:00,21.7,11.1,29.19,NNE,22,3.0,6.0,63,0.00,,,0.00,meteohub,2013-02-24 06:40:00,
2013-02-24 00:45:00,21.7,11.5,29.19,NNE,22,6.0,6.0,64,0.00,,,0.00,meteohub,2013-02-24 06:45:00,
2013-02-24 00:50:00,21.6,11.3,29.19,NNE,22,6.0,8.0,64,0.00,,,0.00,meteohub,2013-02-24 06:50:00,
2013-02-24 00:55:00,21.4,11.1,29.19,NNE,22,3.0,8.0,64,0.00,,,0.00,meteohub,2013-02-24 06:55:00,
2013-02-24 01:00:00,21.4,11.5,29.19,ENE,68,4.0,8.0,65,0.00,,,0.00,meteohub,2013-02-24 07:00:00,
2013-02-24 01:05:00,21.2,11.7,29.19,NNE,22,2.0,6.0,66,0.00,,,0.00,meteohub,2013-02-24 07:05:00,
2013-02-24 01:10:00,21.2,11.7,29.19,ENE,68,3.0,6.0,66,0.00,,,0.00,meteohub,2013-02-24 07:10:00,
2013-02-24 01:15:00,21.2,11.7,29.19,NNE,22,6.0,6.0,66,0.00,,,0.00,meteohub,2013-02-24 07:15:00,
2013-02-24 01:20:00,21.2,12.0,29.19,NNW,338,6.0,8.0,67,0.00,,,0.00,meteohub,2013-02-24 07:20:00,
2013-02-24 01:25:00,21.0,11.8,29.19,NE,45,3.0,9.0,67,0.00,,,0.00,meteohub,2013-02-24 07:25:00,
2013-02-24 01:30:00,21.0,11.8,29.19,NE,45,3.0,9.0,67,0.00,,,0.00,meteohub,2013-02-24 07:30:00,
2013-02-24 01:35:00,20.8,11.7,29.19,NNE,22,4.0,9.0,67,0.00,,,0.00,meteohub,2013-02-24 07:35:00,
2013-02-24 01:40:00,20.8,11.7,29.19,NNE,22,3.0,9.0,67,0.00,,,0.00,meteohub,2013-02-24 07:40:00,
2013-02-24 01:45:00,20.7,11.5,29.19,ESE,112,6.0,7.0,67,0.00,,,0.00,meteohub,2013-02-24 07:45:00,
2013-02-24 01:50:00,20.7,11.5,29.19,ENE,68,0.0,8.0,67,0.00,,,0.00,meteohub,2013-02-24 07:50:00,
2013-02-24 01:56:00,20.5,11.3,29.19,NNE,22,6.0,8.0,67,0.00,,,0.00,meteohub,2013-02-24 07:56:00,
2013-02-24 02:01:00,20.5,11.3,29.19,ENE,68,2.0,8.0,67,0.00,,,0.00,meteohub,2013-02-24 08:01:00,
2013-02-24 02:05:00,20.3,11.1,29.19,NNE,22,0.0,6.0,67,0.00,,,0.00,meteohub,2013-02-24 08:05:00,
2013-02-24 02:10:00,20.3,11.1,29.19,NNE,22,1.0,6.0,67,0.00,,,0.00,meteohub,2013-02-24 08:10:00,
2013-02-24 02:15:00,20.3,11.5,29.19,SSW,202,3.0,6.0,68,0.00,,,0.00,meteohub,2013-02-24 08:15:00,
2013-02-24 02:20:00,20.3,11.5,29.19,NNE,22,5.0,6.0,68,0.00,,,0.00,meteohub,2013-02-24 08:20:00,
2013-02-24 02:25:00,20.3,11.5,29.19,NNE,22,2.0,6.0,68,0.00,,,0.00,meteohub,2013-02-24 08:25:00,
2013-02-24 02:30:00,20.3,11.1,29.19,ENE,68,4.0,8.0,67,0.00,,,0.00,meteohub,2013-02-24 08:30:00,
2013-02-24 02:36:00,20.3,11.5,29.19,NNE,22,4.0,8.0,68,0.00,,,0.00,meteohub,2013-02-24 08:36:00,
2013-02-24 02:40:00,20.1,11.3,29.19,NNE,22,6.0,8.0,68,0.00,,,0.00,meteohub,2013-02-24 08:40:00,
2013-02-24 02:45:00,19.9,11.1,29.19,ENE,68,4.0,8.0,68,0.00,,,0.00,meteohub,2013-02-24 08:45:00,
2013-02-24 02:50:00,19.9,11.1,29.19,ENE,68,4.0,6.0,68,0.00,,,0.00,meteohub,2013-02-24 08:50:00,
2013-02-24 02:55:00,19.8,10.9,29.19,ENE,68,2.0,8.0,68,0.00,,,0.00,meteohub,2013-02-24 08:55:00,
2013-02-24 03:00:00,19.8,11.3,29.19,NNE,22,2.0,8.0,69,0.00,,,0.00,meteohub,2013-02-24 09:00:00,
2013-02-24 03:05:00,19.8,11.3,29.19,NNE,22,2.0,8.0,69,0.00,,,0.00,meteohub,2013-02-24 09:05:00,
2013-02-24 03:10:00,19.6,11.1,29.19,NNE,22,1.0,9.0,69,0.00,,,0.00,meteohub,2013-02-24 09:10:00,
2013-02-24 03:16:00,19.6,11.1,29.19,NNW,338,2.0,9.0,69,0.00,,,0.00,meteohub,2013-02-24 09:16:00,
2013-02-24 03:20:00,19.4,11.3,29.19,NNE,22,0.0,6.0,70,0.00,,,0.00,meteohub,2013-02-24 09:20:00,
2013-02-24 03:26:00,19.4,11.3,29.19,NNW,338,3.0,6.0,70,0.00,,,0.00,meteohub,2013-02-24 09:26:00,
2013-02-24 03:31:00,19.2,11.1,29.19,NE,45,6.0,6.0,70,0.00,,,0.00,meteohub,2013-02-24 09:31:00,
2013-02-24 03:36:00,19.2,11.3,29.19,NNE,22,3.0,6.0,71,0.00,,,0.00,meteohub,2013-02-24 09:36:00,
2013-02-24 03:41:00,19.0,11.1,29.19,ENE,68,0.0,6.0,71,0.00,,,0.00,meteohub,2013-02-24 09:41:00,
2013-02-24 03:46:00,19.0,11.1,29.19,NNE,22,0.0,6.0,71,0.00,,,0.00,meteohub,2013-02-24 09:46:00,
2013-02-24 03:51:00,19.0,11.5,29.19,ESE,112,4.0,6.0,72,0.00,,,0.00,meteohub,2013-02-24 09:51:00,
2013-02-24 03:56:00,18.9,11.3,29.19,ENE,68,2.0,7.0,72,0.00,,,0.00,meteohub,2013-02-24 09:56:00,
2013-02-24 04:01:00,18.7,10.9,29.19,NE,45,4.0,7.0,71,0.00,,,0.00,meteohub,2013-02-24 10:01:00,
2013-02-24 04:06:00,18.5,10.9,29.19,NNE,22,0.0,7.0,72,0.00,,,0.00,meteohub,2013-02-24 10:06:00,
2013-02-24 04:11:00,18.5,10.9,29.22,NNE,22,4.0,5.0,72,0.00,,,0.00,meteohub,2013-02-24 10:11:00,
2013-02-24 04:16:00,18.5,11.3,29.22,NNE,22,6.0,6.0,73,0.00,,,0.00,meteohub,2013-02-24 10:16:00,
2013-02-24 04:21:00,18.3,11.1,29.22,ENE,68,1.0,6.0,73,0.00,,,0.00,meteohub,2013-02-24 10:21:00,
2013-02-24 04:26:00,18.3,11.1,29.19,NNE,22,2.0,6.0,73,0.00,,,0.00,meteohub,2013-02-24 10:26:00,
2013-02-24 04:31:00,18.1,10.9,29.19,NNE,22,4.0,6.0,73,0.00,,,0.00,meteohub,2013-02-24 10:31:00,
2013-02-24 04:36:00,18.1,11.3,29.19,NNE,22,3.0,5.0,74,0.00,,,0.00,meteohub,2013-02-24 10:36:00,
2013-02-24 04:41:00,18.1,11.3,29.22,NNE,22,3.0,6.0,74,0.00,,,0.00,meteohub,2013-02-24 10:41:00,
2013-02-24 04:46:00,17.8,10.9,29.22,East,90,4.0,6.0,74,0.00,,,0.00,meteohub,2013-02-24 10:46:00,
2013-02-24 04:51:00,17.8,10.9,29.22,ENE,68,3.0,6.0,74,0.00,,,0.00,meteohub,2013-02-24 10:51:00,
2013-02-24 04:56:00,17.8,11.3,29.22,ENE,68,5.0,6.0,75,0.00,,,0.00,meteohub,2013-02-24 10:56:00,
2013-02-24 05:01:00,17.8,11.5,29.22,ENE,68,6.0,7.0,76,0.00,,,0.00,meteohub,2013-02-24 11:01:00,
2013-02-24 05:06:00,17.8,11.5,29.22,ENE,68,4.0,7.0,76,0.00,,,0.00,meteohub,2013-02-24 11:06:00,
2013-02-24 05:11:00,17.8,11.5,29.22,North,0,0.0,7.0,76,0.00,,,0.00,meteohub,2013-02-24 11:11:00,
2013-02-24 05:16:00,17.6,11.3,29.22,NE,45,0.0,6.0,76,0.00,,,0.00,meteohub,2013-02-24 11:16:00,
2013-02-24 05:21:00,17.6,11.3,29.22,NNE,22,2.0,6.0,76,0.00,,,0.00,meteohub,2013-02-24 11:21:00,
2013-02-24 05:26:00,17.4,11.1,29.25,North,0,0.0,6.0,76,0.00,,,0.00,meteohub,2013-02-24 11:26:00,
2013-02-24 05:31:00,17.2,10.9,29.25,NNE,22,2.0,6.0,76,0.00,,,0.00,meteohub,2013-02-24 11:31:00,
2013-02-24 05:36:00,17.1,10.8,29.25,NNE,22,2.0,6.0,76,0.00,,,0.00,meteohub,2013-02-24 11:36:00,
2013-02-24 05:41:00,17.1,11.1,29.25,NNW,338,2.0,4.0,77,0.00,,,0.00,meteohub,2013-02-24 11:41:00,
2013-02-24 05:46:00,17.1,11.1,29.25,ENE,68,1.0,4.0,77,0.00,,,0.00,meteohub,2013-02-24 11:46:00,
2013-02-24 05:51:00,16.9,10.9,29.25,NNE,22,0.0,4.0,77,0.00,,,0.00,meteohub,2013-02-24 11:51:00,
2013-02-24 05:56:00,17.1,11.1,29.22,NNE,22,0.0,4.0,77,0.00,,,0.00,meteohub,2013-02-24 11:56:00,
2013-02-24 06:01:00,17.1,11.5,29.22,ESE,112,0.0,5.0,78,0.00,,,0.00,meteohub,2013-02-24 12:01:00,
2013-02-24 06:06:00,16.7,10.8,29.22,NNE,22,0.0,5.0,77,0.00,,,0.00,meteohub,2013-02-24 12:06:00,
2013-02-24 06:11:00,16.3,10.0,29.25,NNE,22,0.0,4.0,76,0.00,,,0.00,meteohub,2013-02-24 12:11:00,
2013-02-24 06:16:00,16.0,9.9,29.25,NNE,22,0.0,0.0,76,0.00,,,0.00,meteohub,2013-02-24 12:16:00,
2013-02-24 06:21:00,15.8,9.3,29.25,North,0,0.0,0.0,75,0.00,,,0.00,meteohub,2013-02-24 12:21:00,
2013-02-24 06:26:00,15.8,9.7,29.25,NNE,22,0.0,0.0,76,0.00,,,0.00,meteohub,2013-02-24 12:26:00,
2013-02-24 06:31:00,15.8,9.9,29.25,NNE,22,0.0,0.0,77,0.00,,,0.00,meteohub,2013-02-24 12:31:00,
2013-02-24 06:36:00,15.8,9.9,29.25,NNE,22,0.0,0.0,77,0.00,,,0.00,meteohub,2013-02-24 12:36:00,
2013-02-24 06:41:00,15.8,10.2,29.25,NNW,338,0.0,0.0,78,0.00,,,0.00,meteohub,2013-02-24 12:41:00,
2013-02-24 06:46:00,16.2,10.6,29.25,East,90,0.0,0.0,78,0.00,,,0.00,meteohub,2013-02-24 12:46:00,
2013-02-24 06:51:00,16.7,11.3,29.25,North,0,0.0,0.0,79,0.00,,,0.00,meteohub,2013-02-24 12:51:00,
2013-02-24 06:56:00,17.2,11.8,29.28,NNE,22,0.0,0.0,79,0.00,,,0.00,meteohub,2013-02-24 12:56:00,
2013-02-24 07:01:00,17.8,12.0,29.28,WNW,292,0.0,2.0,78,0.00,,,0.00,meteohub,2013-02-24 13:01:00,
2013-02-24 07:06:00,18.7,12.7,29.28,West,270,0.0,3.0,77,0.00,,,0.00,meteohub,2013-02-24 13:06:00,
2013-02-24 07:11:00,19.8,12.9,29.28,North,0,0.0,3.0,74,0.00,,,0.00,meteohub,2013-02-24 13:11:00,
2013-02-24 07:16:00,20.7,11.8,29.28,North,0,2.0,6.0,68,0.00,,,0.00,meteohub,2013-02-24 13:16:00,
2013-02-24 07:21:00,21.6,10.2,29.28,ENE,68,1.0,6.0,61,0.00,,,0.00,meteohub,2013-02-24 13:21:00,
2013-02-24 07:26:00,22.6,9.7,29.28,East,90,3.0,4.0,57,0.00,,,0.00,meteohub,2013-02-24 13:26:00,
2013-02-24 07:31:00,23.5,8.6,29.28,WSW,248,1.0,6.0,52,0.00,,,0.00,meteohub,2013-02-24 13:31:00,
2013-02-24 07:36:00,24.1,7.7,29.28,NNE,22,1.0,6.0,49,0.00,,,0.00,meteohub,2013-02-24 13:36:00,
2013-02-24 07:41:00,25.0,7.2,29.28,North,0,0.0,6.0,46,0.00,,,0.00,meteohub,2013-02-24 13:41:00,
2013-02-24 07:46:00,25.5,6.1,29.28,North,0,3.0,5.0,43,0.00,,,0.00,meteohub,2013-02-24 13:46:00,
2013-02-24 07:51:00,26.2,6.3,29.28,NNE,22,3.0,5.0,42,0.00,,,0.00,meteohub,2013-02-24 13:51:00,
2013-02-24 07:56:00,26.8,6.3,29.28,NNE,22,6.0,6.0,41,0.00,,,0.00,meteohub,2013-02-24 13:56:00,
2013-02-24 08:01:00,27.5,7.0,29.28,North,0,0.0,6.0,41,0.00,,,0.00,meteohub,2013-02-24 14:01:00,
2013-02-24 08:06:00,28.4,6.6,29.28,ENE,68,0.0,6.0,39,0.00,,,0.00,meteohub,2013-02-24 14:06:00,
2013-02-24 08:11:00,28.6,5.7,29.28,NNE,22,0.0,6.0,37,0.00,,,0.00,meteohub,2013-02-24 14:11:00,
2013-02-24 08:16:00,29.5,4.6,29.28,NNE,22,0.0,4.0,34,0.00,,,0.00,meteohub,2013-02-24 14:16:00,
2013-02-24 08:21:00,30.2,4.6,29.28,ENE,68,2.0,4.0,33,0.00,,,0.00,meteohub,2013-02-24 14:21:00,
2013-02-24 08:26:00,31.3,4.8,29.28,NE,45,1.0,3.0,32,0.00,,,0.00,meteohub,2013-02-24 14:26:00,
2013-02-24 08:31:00,32.0,4.8,29.28,ENE,68,1.0,3.0,31,0.00,,,0.00,meteohub,2013-02-24 14:31:00,
2013-02-24 08:36:00,32.9,5.7,29.28,NNE,22,0.0,4.0,31,0.00,,,0.00,meteohub,2013-02-24 14:36:00,
2013-02-24 08:41:00,33.8,5.7,29.28,North,0,0.0,4.0,30,0.00,,,0.00,meteohub,2013-02-24 14:41:00,
2013-02-24 08:46:00,35.1,6.8,29.28,East,90,0.0,4.0,30,0.00,,,0.00,meteohub,2013-02-24 14:46:00,
2013-02-24 08:51:00,35.8,2.7,29.28,ENE,68,0.0,3.0,24,0.00,,,0.00,meteohub,2013-02-24 14:51:00,
2013-02-24 08:56:00,36.9,3.6,29.28,NNE,22,0.0,2.0,24,0.00,,,0.00,meteohub,2013-02-24 14:56:00,
2013-02-24 09:01:00,36.9,1.8,29.28,NNE,22,0.0,2.0,22,0.00,,,0.00,meteohub,2013-02-24 15:01:00,
2013-02-24 09:06:00,37.8,1.4,29.28,NNE,22,0.0,2.0,21,0.00,,,0.00,meteohub,2013-02-24 15:06:00,
2013-02-24 09:11:00,39.4,2.8,29.31,North,0,0.0,1.0,21,0.00,,,0.00,meteohub,2013-02-24 15:11:00,
2013-02-24 09:16:00,39.7,-0.2,29.31,NNW,338,0.0,1.0,18,0.00,,,0.00,meteohub,2013-02-24 15:16:00,
2013-02-24 09:21:00,39.9,0.0,29.31,North,0,0.0,2.0,18,0.00,,,0.00,meteohub,2013-02-24 15:21:00,
2013-02-24 09:26:00,40.8,-1.8,29.28,ESE,112,2.0,2.0,16,0.00,,,0.00,meteohub,2013-02-24 15:26:00,
2013-02-24 09:31:00,41.5,-1.1,29.28,WSW,248,0.0,3.0,16,0.00,,,0.00,meteohub,2013-02-24 15:31:00,
2013-02-24 09:36:00,41.7,-1.1,29.28,NNE,22,0.0,3.0,16,0.00,,,0.00,meteohub,2013-02-24 15:36:00,
2013-02-24 09:41:00,42.4,-0.4,29.31,NNE,22,0.0,3.0,16,0.00,,,0.00,meteohub,2013-02-24 15:41:00,
2013-02-24 09:46:00,43.0,-1.3,29.31,NNE,22,1.0,3.0,15,0.00,,,0.00,meteohub,2013-02-24 15:46:00,
2013-02-24 09:51:00,45.0,0.1,29.31,NNE,22,2.0,3.0,15,0.00,,,0.00,meteohub,2013-02-24 15:51:00,
2013-02-24 09:56:00,45.7,0.9,29.31,NNW,338,1.0,3.0,15,0.00,,,0.00,meteohub,2013-02-24 15:56:00,
2013-02-24 10:01:00,44.6,0.0,29.31,NNW,338,0.0,6.0,15,0.00,,,0.00,meteohub,2013-02-24 16:01:00,
2013-02-24 10:06:00,43.7,-0.8,29.31,East,90,0.0,6.0,15,0.00,,,0.00,meteohub,2013-02-24 16:06:00,
2013-02-24 10:11:00,43.7,-0.8,29.31,SSW,202,2.0,6.0,15,0.00,,,0.00,meteohub,2013-02-24 16:11:00,
2013-02-24 10:16:00,43.7,-0.8,29.31,NE,45,5.0,6.0,15,0.00,,,0.00,meteohub,2013-02-24 16:16:00,
2013-02-24 10:21:00,45.1,0.3,29.31,NNW,338,2.0,6.0,15,0.00,,,0.00,meteohub,2013-02-24 16:21:00,
2013-02-24 10:26:00,45.3,0.5,29.31,WSW,248,0.0,6.0,15,0.00,,,0.00,meteohub,2013-02-24 16:26:00,
2013-02-24 10:31:00,44.2,-0.4,29.31,NNE,22,3.0,7.0,15,0.00,,,0.00,meteohub,2013-02-24 16:31:00,
2013-02-24 10:36:00,45.3,0.5,29.31,NNE,22,1.0,7.0,15,0.00,,,0.00,meteohub,2013-02-24 16:36:00,
2013-02-24 10:41:00,45.3,0.5,29.31,NNW,338,0.0,7.0,15,0.00,,,0.00,meteohub,2013-02-24 16:41:00,
2013-02-24 10:46:00,45.1,0.3,29.31,ENE,68,4.0,7.0,15,0.00,,,0.00,meteohub,2013-02-24 16:46:00,
2013-02-24 10:51:00,45.1,0.3,29.31,NNW,338,0.0,7.0,15,0.00,,,0.00,meteohub,2013-02-24 16:51:00,
2013-02-24 10:56:00,44.8,0.1,29.31,North,0,3.0,10.0,15,0.00,,,0.00,meteohub,2013-02-24 16:56:00,
2013-02-24 11:01:00,45.9,0.9,29.31,NNW,338,6.0,10.0,15,0.00,,,0.00,meteohub,2013-02-24 17:01:00,
2013-02-24 11:06:00,45.5,0.7,29.31,NNE,22,3.0,10.0,15,0.00,,,0.00,meteohub,2013-02-24 17:06:00,
2013-02-24 11:11:00,46.6,0.1,29.31,NNW,338,5.0,10.0,14,0.00,,,0.00,meteohub,2013-02-24 17:11:00,
2013-02-24 11:16:00,47.1,0.5,29.31,NNE,22,1.0,9.0,14,0.00,,,0.00,meteohub,2013-02-24 17:16:00,
2013-02-24 11:21:00,47.1,0.5,29.31,NNE,22,4.0,7.0,14,0.00,,,0.00,meteohub,2013-02-24 17:21:00,
2013-02-24 11:26:00,47.1,0.5,29.31,East,90,0.0,7.0,14,0.00,,,0.00,meteohub,2013-02-24 17:26:00,
2013-02-24 11:31:00,46.4,0.0,29.31,East,90,5.0,6.0,14,0.00,,,0.00,meteohub,2013-02-24 17:31:00,
2013-02-24 11:37:00,46.4,0.0,29.31,NNE,22,0.0,8.0,14,0.00,,,0.00,meteohub,2013-02-24 17:37:00,
2013-02-24 11:42:00,49.1,2.1,29.31,NNE,22,6.0,8.0,14,0.00,,,0.00,meteohub,2013-02-24 17:42:00,
2013-02-24 11:47:00,49.1,2.1,29.31,North,0,0.0,8.0,14,0.00,,,0.00,meteohub,2013-02-24 17:47:00,
2013-02-24 11:52:00,48.0,1.2,29.31,NE,45,2.0,6.0,14,0.00,,,0.00,meteohub,2013-02-24 17:52:00,
2013-02-24 11:57:00,48.2,1.4,29.34,ENE,68,1.0,6.0,14,0.00,,,0.00,meteohub,2013-02-24 17:57:00,
2013-02-24 12:02:00,48.7,1.8,29.34,NNE,22,6.0,6.0,14,0.00,,,0.00,meteohub,2013-02-24 18:02:00,
2013-02-24 12:07:00,50.2,3.0,29.34,NNW,338,0.0,6.0,14,0.00,,,0.00,meteohub,2013-02-24 18:07:00,
2013-02-24 12:12:00,52.5,3.2,29.34,NNW,338,0.0,6.0,13,0.00,,,0.00,meteohub,2013-02-24 18:12:00,
2013-02-24 12:17:00,50.9,3.6,29.34,NE,45,3.0,6.0,14,0.00,,,0.00,meteohub,2013-02-24 18:17:00,
2013-02-24 12:22:00,49.8,2.7,29.34,ENE,68,3.0,5.0,14,0.00,,,0.00,meteohub,2013-02-24 18:22:00,
2013-02-24 12:27:00,51.6,4.1,29.31,NNE,22,0.0,6.0,14,0.00,,,0.00,meteohub,2013-02-24 18:27:00,
2013-02-24 12:32:00,50.5,3.2,29.31,North,0,4.0,6.0,14,0.00,,,0.00,meteohub,2013-02-24 18:32:00,
2013-02-24 12:37:00,48.9,1.9,29.31,NNE,22,2.0,8.0,14,0.00,,,0.00,meteohub,2013-02-24 18:37:00,
2013-02-24 12:42:00,49.8,2.7,29.31,North,0,4.0,8.0,14,0.00,,,0.00,meteohub,2013-02-24 18:42:00,
2013-02-24 12:47:00,49.3,2.3,29.31,NNE,22,0.0,8.0,14,0.00,,,0.00,meteohub,2013-02-24 18:47:00,
2013-02-24 12:52:00,52.0,2.8,29.31,WSW,248,0.0,6.0,13,0.00,,,0.00,meteohub,2013-02-24 18:52:00,
2013-02-24 12:57:00,50.5,3.2,29.31,NNE,22,0.0,6.0,14,0.00,,,0.00,meteohub,2013-02-24 18:57:00,
2013-02-24 13:02:00,49.6,2.5,29.31,North,0,6.0,6.0,14,0.00,,,0.00,meteohub,2013-02-24 19:02:00,
2013-02-24 13:07:00,49.1,2.1,29.31,NNW,338,0.0,8.0,14,0.00,,,0.00,meteohub,2013-02-24 19:07:00,
2013-02-24 13:12:00,48.6,1.6,29.31,SSE,158,0.0,8.0,14,0.00,,,0.00,meteohub,2013-02-24 19:12:00,
2013-02-24 13:17:00,48.0,1.2,29.31,NNE,22,3.0,8.0,14,0.00,,,0.00,meteohub,2013-02-24 19:17:00,
2013-02-24 13:22:00,48.7,1.8,29.31,NNE,22,0.0,6.0,14,0.00,,,0.00,meteohub,2013-02-24 19:22:00,
2013-02-24 13:27:00,48.2,1.4,29.31,North,0,0.0,6.0,14,0.00,,,0.00,meteohub,2013-02-24 19:27:00,
2013-02-24 13:32:00,47.7,0.9,29.31,ENE,68,5.0,6.0,14,0.00,,,0.00,meteohub,2013-02-24 19:32:00,
2013-02-24 13:37:00,47.1,0.5,29.31,NE,45,3.0,6.0,14,0.00,,,0.00,meteohub,2013-02-24 19:37:00,
2013-02-24 13:42:00,47.5,0.9,29.31,NNW,338,2.0,6.0,14,0.00,,,0.00,meteohub,2013-02-24 19:42:00,
2013-02-24 13:47:00,49.5,2.3,29.31,WNW,292,2.0,6.0,14,0.00,,,0.00,meteohub,2013-02-24 19:47:00,
2013-02-24 13:52:00,48.7,1.8,29.31,NNW,338,6.0,6.0,14,0.00,,,0.00,meteohub,2013-02-24 19:52:00,
2013-02-24 13:57:00,49.1,2.1,29.31,WSW,248,0.0,6.0,14,0.00,,,0.00,meteohub,2013-02-24 19:57:00,
2013-02-24 14:02:00,47.8,1.0,29.31,North,0,0.0,6.0,14,0.00,,,0.00,meteohub,2013-02-24 20:02:00,
2013-02-24 14:07:00,47.1,0.5,29.31,NNE,22,0.0,6.0,14,0.00,,,0.00,meteohub,2013-02-24 20:07:00,
2013-02-24 14:12:00,48.7,1.8,29.31,WNW,292,0.0,5.0,14,0.00,,,0.00,meteohub,2013-02-24 20:12:00,
2013-02-24 14:17:00,47.5,0.9,29.31,ENE,68,1.0,9.0,14,0.00,,,0.00,meteohub,2013-02-24 20:17:00,
2013-02-24 14:22:00,48.0,1.2,29.31,WNW,292,0.0,9.0,14,0.00,,,0.00,meteohub,2013-02-24 20:22:00,
2013-02-24 14:27:00,48.2,1.4,29.31,NNW,338,1.0,9.0,14,0.00,,,0.00,meteohub,2013-02-24 20:27:00,
2013-02-24 14:32:00,47.7,0.9,29.31,North,0,0.0,7.0,14,0.00,,,0.00,meteohub,2013-02-24 20:32:00,
2013-02-24 14:37:00,48.2,1.4,29.31,NW,315,0.0,4.0,14,0.00,,,0.00,meteohub,2013-02-24 20:37:00,
2013-02-24 14:41:00,47.3,0.7,29.31,West,270,0.0,4.0,14,0.00,,,0.00,meteohub,2013-02-24 20:41:00,
2013-02-24 14:46:00,46.4,0.0,29.31,NNW,338,0.0,4.0,14,0.00,,,0.00,meteohub,2013-02-24 20:46:00,
2013-02-24 14:52:00,45.3,0.5,29.31,ENE,68,3.0,4.0,15,0.00,,,0.00,meteohub,2013-02-24 20:52:00,
2013-02-24 14:57:00,46.9,0.3,29.31,ENE,68,0.0,5.0,14,0.00,,,0.00,meteohub,2013-02-24 20:57:00,
2013-02-24 15:02:00,46.9,0.3,29.31,North,0,0.0,5.0,14,0.00,,,0.00,meteohub,2013-02-24 21:02:00,
2013-02-24 15:07:00,46.2,1.2,29.31,WNW,292,0.0,5.0,15,0.00,,,0.00,meteohub,2013-02-24 21:07:00,
2013-02-24 15:11:00,45.9,0.9,29.31,WNW,292,0.0,6.0,15,0.00,,,0.00,meteohub,2013-02-24 21:11:00,
2013-02-24 15:17:00,44.6,0.0,29.31,East,90,3.0,7.0,15,0.00,,,0.00,meteohub,2013-02-24 21:17:00,
2013-02-24 15:22:00,43.7,-0.8,29.31,East,90,0.0,7.0,15,0.00,,,0.00,meteohub,2013-02-24 21:22:00,
2013-02-24 15:27:00,44.1,-0.6,29.31,NNW,338,0.0,7.0,15,0.00,,,0.00,meteohub,2013-02-24 21:27:00,
2013-02-24 15:32:00,45.1,0.3,29.31,WNW,292,0.0,6.0,15,0.00,,,0.00,meteohub,2013-02-24 21:32:00,
2013-02-24 15:37:00,44.8,0.1,29.31,ENE,68,1.0,3.0,15,0.00,,,0.00,meteohub,2013-02-24 21:37:00,
2013-02-24 15:42:00,43.9,-0.6,29.31,NNE,22,1.0,3.0,15,0.00,,,0.00,meteohub,2013-02-24 21:42:00,
2013-02-24 15:47:00,43.3,-1.1,29.31,NNW,338,0.0,3.0,15,0.00,,,0.00,meteohub,2013-02-24 21:47:00,
2013-02-24 15:52:00,43.3,-1.1,29.31,West,270,0.0,3.0,15,0.00,,,0.00,meteohub,2013-02-24 21:52:00,
2013-02-24 15:57:00,42.8,-1.5,29.31,North,0,0.0,2.0,15,0.00,,,0.00,meteohub,2013-02-24 21:57:00,
2013-02-24 16:02:00,41.9,-0.9,29.31,NNW,338,0.0,3.0,16,0.00,,,0.00,meteohub,2013-02-24 22:02:00,
2013-02-24 16:07:00,41.5,-1.1,29.31,West,270,1.0,3.0,16,0.00,,,0.00,meteohub,2013-02-24 22:07:00,
2013-02-24 16:12:00,40.5,-2.0,29.31,WNW,292,0.0,6.0,16,0.00,,,0.00,meteohub,2013-02-24 22:12:00,
2013-02-24 16:17:00,39.7,-0.2,29.31,NW,315,5.0,6.0,18,0.00,,,0.00,meteohub,2013-02-24 22:17:00,
2013-02-24 16:22:00,39.4,-0.4,29.31,NNW,338,3.0,6.0,18,0.00,,,0.00,meteohub,2013-02-24 22:22:00,
2013-02-24 16:27:00,39.2,-0.6,29.31,NNW,338,0.0,6.0,18,0.00,,,0.00,meteohub,2013-02-24 22:27:00,
2013-02-24 16:32:00,38.7,2.1,29.31,NW,315,0.0,6.0,21,0.00,,,0.00,meteohub,2013-02-24 22:32:00,
2013-02-24 16:37:00,38.1,1.8,29.31,West,270,0.0,6.0,21,0.00,,,0.00,meteohub,2013-02-24 22:37:00,
2013-02-24 16:42:00,38.1,1.8,29.31,NW,315,3.0,6.0,21,0.00,,,0.00,meteohub,2013-02-24 22:42:00,
2013-02-24 16:47:00,37.9,4.5,29.31,WNW,292,0.0,3.0,24,0.00,,,0.00,meteohub,2013-02-24 22:47:00,
2013-02-24 16:52:00,37.6,4.1,29.31,WNW,292,0.0,3.0,24,0.00,,,0.00,meteohub,2013-02-24 22:52:00,
2013-02-24 16:57:00,37.2,6.4,29.31,North,-999,-999.0,3.0,27,0.00,,,0.00,meteohub,2013-02-24 22:57:00,
2013-02-24 17:01:00,36.7,7.5,29.31,North,-999,-999.0,3.0,29,0.00,,,0.00,meteohub,2013-02-24 23:01:00,
2013-02-24 17:07:00,36.3,7.9,29.31,NNW,338,3.0,3.0,30,0.00,,,0.00,meteohub,2013-02-24 23:07:00,
2013-02-24 17:12:00,36.0,7.7,29.31,NNW,338,3.0,3.0,30,0.00,,,0.00,meteohub,2013-02-24 23:12:00,
2013-02-24 17:17:00,35.6,7.3,29.31,WNW,292,5.0,5.0,30,0.00,,,0.00,meteohub,2013-02-24 23:17:00,
2013-02-24 17:21:00,34.9,7.3,29.31,West,270,0.0,5.0,31,0.00,,,0.00,meteohub,2013-02-24 23:21:00,
2013-02-24 17:26:00,34.3,7.0,29.31,NNW,338,3.0,5.0,31,0.00,,,0.00,meteohub,2013-02-24 23:26:00,
2013-02-24 17:31:00,33.8,7.2,29.31,NNW,338,0.0,6.0,32,0.00,,,0.00,meteohub,2013-02-24 23:31:00,
2013-02-24 17:36:00,33.3,7.3,29.31,NNW,338,0.0,6.0,33,0.00,,,0.00,meteohub,2013-02-24 23:36:00,
2013-02-24 17:41:00,32.9,7.0,29.31,NW,315,0.0,6.0,33,0.00,,,0.00,meteohub,2013-02-24 23:41:00,
2013-02-24 17:47:00,32.7,8.2,29.31,NNW,338,0.0,4.0,35,0.00,,,0.00,meteohub,2013-02-24 23:47:00,
2013-02-24 17:51:00,32.2,8.2,29.31,NNW,338,0.0,0.0,36,0.00,,,0.00,meteohub,2013-02-24 23:51:00,
2013-02-24 17:56:00,32.0,9.3,29.34,WNW,292,0.0,0.0,38,0.00,,,0.00,meteohub,2013-02-24 23:56:00,
2013-02-24 18:01:00,31.8,9.7,29.34,WNW,292,0.0,0.0,39,0.00,,,0.00,meteohub,2013-02-25 00:01:00,
2013-02-24 18:06:00,31.5,9.3,29.34,NW,315,0.0,0.0,39,0.00,,,0.00,meteohub,2013-02-25 00:06:00,
2013-02-24 18:11:00,31.3,9.9,29.34,WNW,292,0.0,0.0,40,0.00,,,0.00,meteohub,2013-02-25 00:11:00,
2013-02-24 18:16:00,31.1,9.7,29.34,WNW,292,0.0,0.0,40,0.00,,,0.00,meteohub,2013-02-25 00:16:00,
2013-02-24 18:21:00,30.9,9.5,29.34,WNW,292,0.0,0.0,40,0.00,,,0.00,meteohub,2013-02-25 00:21:00,
2013-02-24 18:26:00,30.4,9.0,29.34,WNW,292,0.0,0.0,40,0.00,,,0.00,meteohub,2013-02-25 00:26:00,
2013-02-24 18:32:00,30.0,9.1,29.34,WNW,292,0.0,0.0,41,0.00,,,0.00,meteohub,2013-02-25 00:32:00,
2013-02-24 18:37:00,29.7,8.2,29.34,WNW,292,0.0,0.0,40,0.00,,,0.00,meteohub,2013-02-25 00:37:00,
2013-02-24 18:42:00,29.5,8.2,29.34,WNW,292,0.0,0.0,40,0.00,,,0.00,meteohub,2013-02-25 00:42:00,
2013-02-24 18:47:00,29.3,8.1,29.34,WNW,292,0.0,0.0,40,0.00,,,0.00,meteohub,2013-02-25 00:47:00,
2013-02-24 18:52:00,28.8,8.1,29.34,SSE,158,0.0,0.0,41,0.00,,,0.00,meteohub,2013-02-25 00:52:00,
2013-02-24 18:57:00,28.4,7.7,29.34,SSE,158,0.0,0.0,41,0.00,,,0.00,meteohub,2013-02-25 00:57:00,
2013-02-24 19:02:00,27.7,7.7,29.34,SSE,158,0.0,0.0,42,0.00,,,0.00,meteohub,2013-02-25 01:02:00,
2013-02-24 19:07:00,27.1,7.2,29.34,SSE,158,0.0,0.0,42,0.00,,,0.00,meteohub,2013-02-25 01:07:00,
2013-02-24 19:12:00,27.0,7.5,29.34,SSE,158,0.0,0.0,43,0.00,,,0.00,meteohub,2013-02-25 01:12:00,
2013-02-24 19:17:00,27.0,7.5,29.34,SSE,158,0.0,0.0,43,0.00,,,0.00,meteohub,2013-02-25 01:17:00,
2013-02-24 19:22:00,26.6,7.2,29.34,SSE,158,0.0,0.0,43,0.00,,,0.00,meteohub,2013-02-25 01:22:00,
2013-02-24 19:27:00,26.8,7.3,29.34,SSE,158,0.0,0.0,43,0.00,,,0.00,meteohub,2013-02-25 01:27:00,
2013-02-24 19:32:00,26.2,7.3,29.34,SSE,158,0.0,0.0,44,0.00,,,0.00,meteohub,2013-02-25 01:32:00,
2013-02-24 19:37:00,25.7,7.3,29.34,SSE,158,0.0,0.0,45,0.00,,,0.00,meteohub,2013-02-25 01:37:00,
2013-02-24 19:42:00,25.2,6.8,29.34,SSE,158,0.0,0.0,45,0.00,,,0.00,meteohub,2013-02-25 01:42:00,
2013-02-24 19:47:00,25.2,6.8,29.34,SSE,158,0.0,0.0,45,0.00,,,0.00,meteohub,2013-02-25 01:47:00,
2013-02-24 19:52:00,25.3,7.9,29.34,SSE,158,0.0,0.0,47,0.00,,,0.00,meteohub,2013-02-25 01:52:00,
2013-02-24 19:57:00,25.9,8.4,29.34,SSE,158,0.0,0.0,47,0.00,,,0.00,meteohub,2013-02-25 01:57:00,
2013-02-24 20:02:00,25.5,8.1,29.34,SSE,158,0.0,0.0,47,0.00,,,0.00,meteohub,2013-02-25 02:02:00,
2013-02-24 20:07:00,25.5,8.6,29.34,SSE,158,0.0,0.0,48,0.00,,,0.00,meteohub,2013-02-25 02:07:00,
2013-02-24 20:12:00,25.0,8.1,29.34,SSE,158,0.0,0.0,48,0.00,,,0.00,meteohub,2013-02-25 02:12:00,
2013-02-24 20:17:00,24.6,8.2,29.34,SSE,158,0.0,0.0,49,0.00,,,0.00,meteohub,2013-02-25 02:17:00,
2013-02-24 20:22:00,24.4,8.1,29.34,SSE,158,0.0,0.0,49,0.00,,,0.00,meteohub,2013-02-25 02:22:00,
2013-02-24 20:27:00,24.4,8.4,29.34,SSE,158,0.0,0.0,50,0.00,,,0.00,meteohub,2013-02-25 02:27:00,
2013-02-24 20:32:00,24.3,8.2,29.34,SSE,158,0.0,0.0,50,0.00,,,0.00,meteohub,2013-02-25 02:32:00,
2013-02-24 20:37:00,24.1,8.6,29.34,SSE,158,0.0,0.0,51,0.00,,,0.00,meteohub,2013-02-25 02:37:00,
2013-02-24 20:42:00,24.1,8.6,29.34,SSE,158,0.0,0.0,51,0.00,,,0.00,meteohub,2013-02-25 02:42:00,
2013-02-24 20:47:00,23.9,8.1,29.34,SSE,158,0.0,0.0,50,0.00,,,0.00,meteohub,2013-02-25 02:47:00,
2013-02-24 20:52:00,23.9,8.8,29.34,SSE,158,0.0,0.0,52,0.00,,,0.00,meteohub,2013-02-25 02:52:00,
2013-02-24 20:57:00,23.9,8.8,29.34,SSE,158,0.0,0.0,52,0.00,,,0.00,meteohub,2013-02-25 02:57:00,
2013-02-24 21:02:00,23.9,9.3,29.34,SSE,158,0.0,0.0,53,0.00,,,0.00,meteohub,2013-02-25 03:02:00,
2013-02-24 21:07:00,23.9,8.8,29.34,SSE,158,0.0,0.0,52,0.00,,,0.00,meteohub,2013-02-25 03:07:00,
2013-02-24 21:12:00,23.7,9.1,29.34,SSE,158,0.0,0.0,53,0.00,,,0.00,meteohub,2013-02-25 03:12:00,
2013-02-24 21:17:00,23.5,9.0,29.34,SSE,158,0.0,0.0,53,0.00,,,0.00,meteohub,2013-02-25 03:17:00,
2013-02-24 21:22:00,23.5,9.3,29.34,SSE,158,0.0,0.0,54,0.00,,,0.00,meteohub,2013-02-25 03:22:00,
2013-02-24 21:27:00,23.2,8.6,29.34,SSE,158,0.0,0.0,53,0.00,,,0.00,meteohub,2013-02-25 03:27:00,
2013-02-24 21:32:00,22.8,8.8,29.34,SSE,158,0.0,0.0,54,0.00,,,0.00,meteohub,2013-02-25 03:32:00,
2013-02-24 21:37:00,22.8,9.1,29.34,SSE,158,0.0,0.0,55,0.00,,,0.00,meteohub,2013-02-25 03:37:00,
2013-02-24 21:42:00,22.8,9.1,29.34,SSE,158,0.0,0.0,55,0.00,,,0.00,meteohub,2013-02-25 03:42:00,
2013-02-24 21:47:00,22.8,9.1,29.34,SSE,158,0.0,0.0,55,0.00,,,0.00,meteohub,2013-02-25 03:47:00,
2013-02-24 21:52:00,23.2,9.9,29.34,SSE,158,0.0,0.0,56,0.00,,,0.00,meteohub,2013-02-25 03:52:00,
2013-02-24 21:57:00,23.0,9.7,29.34,SSE,158,0.0,0.0,56,0.00,,,0.00,meteohub,2013-02-25 03:57:00,
2013-02-24 22:02:00,23.4,10.4,29.34,SSE,158,0.0,0.0,57,0.00,,,0.00,meteohub,2013-02-25 04:02:00,
2013-02-24 22:07:00,23.2,10.2,29.34,SSE,158,0.0,0.0,57,0.00,,,0.00,meteohub,2013-02-25 04:07:00,
2013-02-24 22:12:00,23.0,10.4,29.34,SSE,158,0.0,0.0,58,0.00,,,0.00,meteohub,2013-02-25 04:12:00,
2013-02-24 22:16:00,23.0,10.4,29.34,SSE,158,0.0,0.0,58,0.00,,,0.00,meteohub,2013-02-25 04:16:00,
2013-02-24 22:21:00,22.8,10.2,29.34,SSE,158,0.0,0.0,58,0.00,,,0.00,meteohub,2013-02-25 04:21:00,
2013-02-24 22:26:00,22.5,9.9,29.34,SSE,158,0.0,0.0,58,0.00,,,0.00,meteohub,2013-02-25 04:26:00,
2013-02-24 22:32:00,22.3,9.9,29.34,SSE,158,0.0,0.0,58,0.00,,,0.00,meteohub,2013-02-25 04:32:00,
2013-02-24 22:37:00,22.6,10.6,29.34,SSW,202,0.0,0.0,59,0.00,,,0.00,meteohub,2013-02-25 04:37:00,
2013-02-24 22:42:00,22.8,11.1,29.36,WSW,248,0.0,0.0,60,0.00,,,0.00,meteohub,2013-02-25 04:42:00,
2013-02-24 22:46:00,22.6,10.9,29.36,WSW,248,0.0,0.0,60,0.00,,,0.00,meteohub,2013-02-25 04:46:00,
2013-02-24 22:47:00,22.6,10.9,29.36,WSW,248,0.0,0.0,60,0.00,,,0.00,meteohub,2013-02-25 04:47:00,
2013-02-24 22:52:00,22.6,11.3,29.36,WSW,248,0.0,0.0,61,0.00,,,0.00,meteohub,2013-02-25 04:52:00,
2013-02-24 22:57:00,22.8,11.5,29.34,WSW,248,0.0,0.0,61,0.00,,,0.00,meteohub,2013-02-25 04:57:00,
2013-02-24 23:01:00,22.8,11.5,29.34,WSW,248,0.0,0.0,61,0.00,,,0.00,meteohub,2013-02-25 05:01:00,
2013-02-24 23:02:00,22.8,11.8,29.34,WSW,248,0.0,0.0,62,0.00,,,0.00,meteohub,2013-02-25 05:02:00,
2013-02-24 23:07:00,22.5,11.1,29.34,WSW,248,0.0,0.0,61,0.00,,,0.00,meteohub,2013-02-25 05:07:00,
2013-02-24 23:12:00,22.3,10.9,29.34,WSW,248,0.0,0.0,61,0.00,,,0.00,meteohub,2013-02-25 05:12:00,
2013-02-24 23:17:00,22.1,10.8,29.34,WSW,248,0.0,0.0,61,0.00,,,0.00,meteohub,2013-02-25 05:17:00,
2013-02-24 23:22:00,22.1,10.8,29.34,WSW,248,0.0,0.0,61,0.00,,,0.00,meteohub,2013-02-25 05:22:00,
2013-02-24 23:27:00,21.9,10.6,29.34,WSW,248,0.0,0.0,61,0.00,,,0.00,meteohub,2013-02-25 05:27:00,
2013-02-24 23:32:00,22.1,11.1,29.34,WSW,248,0.0,0.0,62,0.00,,,0.00,meteohub,2013-02-25 05:32:00,
2013-02-24 23:37:00,22.3,11.7,29.34,WSW,248,0.0,0.0,63,0.00,,,0.00,meteohub,2013-02-25 05:37:00,
2013-02-24 23:42:00,21.9,11.3,29.36,WSW,248,0.0,0.0,63,0.00,,,0.00,meteohub,2013-02-25 05:42:00,
2013-02-24 23:47:00,21.9,10.9,29.36,WSW,248,0.0,0.0,62,0.00,,,0.00,meteohub,2013-02-25 05:47:00,
2013-02-24 23:52:00,21.9,11.3,29.36,WSW,248,0.0,0.0,63,0.00,,,0.00,meteohub,2013-02-25 05:52:00,
2013-02-24 23:57:00,21.9,11.7,29.34,WSW,248,0.0,0.0,64,0.00,,,0.00,meteohub,2013-02-25 05:57:00,